createdAt,value
2016-12-29T00:00:40.895Z,48.57
2016-12-29T00:01:40.516Z,48.66
2016-12-29T00:02:40.937Z,48.47
2016-12-29T00:03:40.574Z,48.57
2016-12-29T00:04:40.595Z,48.76
2016-12-29T00:05:40.619Z,48.66
2016-12-29T00:06:41.052Z,48.76
2016-12-29T00:07:41.073Z,48.28
2016-12-29T00:08:41.106Z,48.47
2016-12-29T00:09:40.734Z,48.57
2016-12-29T00:10:41.151Z,48.38
2016-12-29T00:11:40.787Z,48.08
2016-12-29T00:12:40.813Z,48.18
2016-12-29T00:13:41.237Z,48.18
2016-12-29T00:14:40.874Z,48.18
2016-12-29T00:15:40.890Z,47.99
2016-12-29T00:16:40.924Z,48.08
2016-12-29T00:17:40.948Z,48.18
2016-12-29T00:18:40.973Z,47.99
2016-12-29T00:19:41.398Z,47.8
2016-12-29T00:20:41.427Z,47.99
2016-12-29T00:21:41.451Z,47.99
2016-12-29T00:22:41.480Z,47.89
2016-12-29T00:23:41.561Z,47.89
2016-12-29T00:24:41.552Z,47.89
2016-12-29T00:25:41.158Z,47.99
2016-12-29T00:26:41.195Z,47.89
2016-12-29T00:27:41.220Z,48.08
2016-12-29T00:28:41.249Z,48.08
2016-12-29T00:29:41.669Z,48.28
2016-12-29T00:30:41.298Z,47.8
2016-12-29T00:31:41.330Z,47.8
2016-12-29T00:32:41.752Z,47.7
2016-12-29T00:33:41.781Z,47.7
2016-12-29T00:34:41.809Z,47.51
2016-12-29T00:35:41.438Z,47.7
2016-12-29T00:36:41.466Z,47.41
2016-12-29T00:37:41.887Z,47.22
2016-12-29T00:38:41.912Z,47.51
2016-12-29T00:39:41.940Z,47.51
2016-12-29T00:40:41.968Z,47.41
2016-12-29T00:41:41.590Z,47.7
2016-12-29T00:42:42.023Z,47.31
2016-12-29T00:43:42.052Z,47.31
2016-12-29T00:44:42.076Z,47.51
2016-12-29T00:45:41.709Z,47.31
2016-12-29T00:46:42.134Z,47.12
2016-12-29T00:47:42.158Z,47.41
2016-12-29T00:48:42.187Z,47.51
2016-12-29T00:49:41.818Z,46.93
2016-12-29T00:50:41.840Z,47.22
2016-12-29T00:51:41.869Z,47.51
2016-12-29T00:52:42.294Z,47.03
2016-12-29T00:53:42.323Z,47.03
2016-12-29T00:54:41.948Z,47.31
2016-12-29T00:55:41.981Z,46.83
2016-12-29T00:56:42.001Z,46.73
2016-12-29T00:57:42.426Z,46.83
2016-12-29T00:58:42.471Z,47.22
2016-12-29T00:59:42.488Z,47.03
2016-12-29T01:00:42.512Z,47.03
2016-12-29T01:01:42.137Z,46.93
2016-12-29T01:02:42.566Z,47.31
2016-12-29T01:03:42.199Z,46.93
2016-12-29T01:04:42.219Z,47.03
2016-12-29T01:05:42.254Z,46.93
2016-12-29T01:06:42.273Z,46.93
2016-12-29T01:07:42.309Z,47.12
2016-12-29T01:08:42.728Z,47.03
2016-12-29T01:09:42.359Z,47.22
2016-12-29T01:10:42.385Z,47.03
2016-12-29T01:11:42.808Z,47.03
2016-12-29T01:12:42.442Z,47.22
2016-12-29T01:13:42.866Z,47.31
2016-12-29T01:14:42.495Z,46.73
2016-12-29T01:15:42.516Z,46.55
2016-12-29T01:16:42.944Z,46.35
2016-12-29T01:17:42.965Z,46.35
2016-12-29T01:18:42.994Z,46.35
2016-12-29T01:19:42.631Z,46.35
2016-12-29T01:20:43.056Z,46.45
2016-12-29T01:21:42.689Z,46.35
2016-12-29T01:22:42.709Z,46.45
2016-12-29T01:23:43.134Z,46.45
2016-12-29T01:24:43.163Z,46.73
2016-12-29T01:25:42.791Z,46.73
2016-12-29T01:26:43.216Z,46.73
2016-12-29T01:27:42.840Z,46.35
2016-12-29T01:28:43.269Z,46.73
2016-12-29T01:29:42.898Z,46.25
2016-12-29T01:30:42.927Z,46.35
2016-12-29T01:31:42.958Z,46.42
2016-12-29T01:32:43.368Z,46.64
2016-12-29T01:33:43.433Z,46.35
2016-12-29T01:34:43.430Z,46.35
2016-12-29T01:35:43.059Z,46.35
2016-12-29T01:36:43.483Z,46.25
2016-12-29T01:37:43.116Z,46.35
2016-12-29T01:38:43.537Z,46.25
2016-12-29T01:39:43.566Z,46.45
2016-12-29T01:40:43.194Z,46.15
2016-12-29T01:41:43.619Z,46.45
2016-12-29T01:42:43.251Z,45.87
2016-12-29T01:43:43.272Z,45.87
2016-12-29T01:44:43.709Z,45.87
2016-12-29T01:45:43.330Z,45.97
2016-12-29T01:46:43.751Z,46.06
2016-12-29T01:47:43.777Z,45.97
2016-12-29T01:48:43.412Z,46.15
2016-12-29T01:49:43.843Z,46.06
2016-12-29T01:50:43.470Z,46.06
2016-12-29T01:51:43.891Z,46.15
2016-12-29T01:52:43.519Z,46.15
2016-12-29T01:53:43.544Z,45.58
2016-12-29T01:54:43.573Z,45.58
2016-12-29T01:55:44.001Z,45.48
2016-12-29T01:56:44.026Z,45.48
2016-12-29T01:57:43.651Z,45.77
2016-12-29T01:58:43.676Z,45.58
2016-12-29T01:59:43.709Z,45.58
2016-12-29T02:00:44.134Z,45.58
2016-12-29T02:01:44.158Z,45.68
2016-12-29T02:02:43.797Z,45.48
2016-12-29T02:03:44.211Z,45.48
2016-12-29T02:04:44.253Z,45.87
2016-12-29T02:05:43.873Z,45.87
2016-12-29T02:06:43.899Z,45.77
2016-12-29T02:07:44.318Z,45.68
2016-12-29T02:08:43.951Z,45.97
2016-12-29T02:09:43.976Z,45.1
2016-12-29T02:10:44.009Z,45.29
2016-12-29T02:11:44.034Z,45.29
2016-12-29T02:12:44.454Z,45.1
2016-12-29T02:13:44.085Z,45.39
2016-12-29T02:14:44.510Z,44.9
2016-12-29T02:15:44.533Z,45.29
2016-12-29T02:16:44.170Z,45.2
2016-12-29T02:17:44.591Z,45.58
2016-12-29T02:18:44.224Z,45.2
2016-12-29T02:19:44.647Z,45.2
2016-12-29T02:20:44.276Z,45
2016-12-29T02:21:44.301Z,45.1
2016-12-29T02:22:44.330Z,45
2016-12-29T02:23:44.363Z,45.1
2016-12-29T02:24:44.383Z,44.71
2016-12-29T02:25:44.414Z,45
2016-12-29T02:26:44.437Z,45
2016-12-29T02:27:44.866Z,44.32
2016-12-29T02:28:44.890Z,44.32
2016-12-29T02:29:44.915Z,44.71
2016-12-29T02:30:44.943Z,45
2016-12-29T02:31:44.968Z,44.59
2016-12-29T02:32:44.997Z,44.81
2016-12-29T02:33:44.633Z,44.71
2016-12-29T02:34:45.046Z,44.42
2016-12-29T02:35:45.079Z,44.52
2016-12-29T02:36:45.105Z,44.62
2016-12-29T02:37:44.736Z,44.71
2016-12-29T02:38:45.162Z,45
2016-12-29T02:39:44.787Z,45
2016-12-29T02:40:44.815Z,44.42
2016-12-29T02:41:45.240Z,44.52
2016-12-29T02:42:45.265Z,44.42
2016-12-29T02:43:45.293Z,44.52
2016-12-29T02:44:44.926Z,44.42
2016-12-29T02:45:44.953Z,44.04
2016-12-29T02:46:44.980Z,44.13
2016-12-29T02:47:45.408Z,44.21
2016-12-29T02:48:45.030Z,44.13
2016-12-29T02:49:45.454Z,44.11
2016-12-29T02:50:45.087Z,44.32
2016-12-29T02:51:45.116Z,44.23
2016-12-29T02:52:45.536Z,44.23
2016-12-29T02:53:45.161Z,44.13
2016-12-29T02:54:45.588Z,44.52
2016-12-29T02:55:45.219Z,44.52
2016-12-29T02:56:45.644Z,44.52
2016-12-29T02:57:45.704Z,44.42
2016-12-29T02:58:45.309Z,44.4
2016-12-29T02:59:45.329Z,44.21
2016-12-29T03:00:45.355Z,44.13
2016-12-29T03:01:45.779Z,43.94
2016-12-29T03:02:45.408Z,44.23
2016-12-29T03:03:45.436Z,43.75
2016-12-29T03:04:45.862Z,43.85
2016-12-29T03:05:45.483Z,43.55
2016-12-29T03:06:45.916Z,43.94
2016-12-29T03:07:45.943Z,43.82
2016-12-29T03:08:45.970Z,43.94
2016-12-29T03:09:45.998Z,43.92
2016-12-29T03:10:46.017Z,44.23
2016-12-29T03:11:45.651Z,43.92
2016-12-29T03:12:45.675Z,43.73
2016-12-29T03:13:46.104Z,43.85
2016-12-29T03:14:46.140Z,44.11
2016-12-29T03:15:46.158Z,43.65
2016-12-29T03:16:46.179Z,43.65
2016-12-29T03:17:46.216Z,43.85
2016-12-29T03:18:45.840Z,43.94
2016-12-29T03:19:46.265Z,43.75
2016-12-29T03:20:46.290Z,43.75
2016-12-29T03:21:46.319Z,43.75
2016-12-29T03:22:46.337Z,43.65
2016-12-29T03:23:46.375Z,43.63
2016-12-29T03:24:46.401Z,43.63
2016-12-29T03:25:46.034Z,43.63
2016-12-29T03:26:46.054Z,43.07
2016-12-29T03:27:46.079Z,43.07
2016-12-29T03:28:46.508Z,43.27
2016-12-29T03:29:46.533Z,43.55
2016-12-29T03:30:46.561Z,43.37
2016-12-29T03:31:46.591Z,43.07
2016-12-29T03:32:46.615Z,43.37
2016-12-29T03:33:46.640Z,43.27
2016-12-29T03:34:46.669Z,43.24
2016-12-29T03:35:46.301Z,43.24
2016-12-29T03:36:46.718Z,43.73
2016-12-29T03:37:46.751Z,43.44
2016-12-29T03:38:46.379Z,43.75
2016-12-29T03:39:46.408Z,43.75
2016-12-29T03:40:46.433Z,43.24
2016-12-29T03:41:46.462Z,43.24
2016-12-29T03:42:46.883Z,43.24
2016-12-29T03:43:46.515Z,43.15
2016-12-29T03:44:46.540Z,43.37
2016-12-29T03:45:46.967Z,43.27
2016-12-29T03:46:46.990Z,43.24
2016-12-29T03:47:47.014Z,42.86
2016-12-29T03:48:46.639Z,43.15
2016-12-29T03:49:46.676Z,43.05
2016-12-29T03:50:47.101Z,42.67
2016-12-29T03:51:46.729Z,43.55
2016-12-29T03:52:46.754Z,43.15
2016-12-29T03:53:46.782Z,42.86
2016-12-29T03:54:46.812Z,43.46
2016-12-29T03:55:46.840Z,43.54
2016-12-29T03:56:47.262Z,43.46
2016-12-29T03:57:46.894Z,43.46
2016-12-29T03:58:47.315Z,43.54
2016-12-29T03:59:47.344Z,42.97
2016-12-29T04:00:47.368Z,43.44
2016-12-29T04:01:47.397Z,42.88
2016-12-29T04:02:47.022Z,42.86
2016-12-29T04:03:47.055Z,42.96
2016-12-29T04:04:47.075Z,42.86
2016-12-29T04:05:47.107Z,42.86
2016-12-29T04:06:47.529Z,43.05
2016-12-29T04:07:47.553Z,43.17
2016-12-29T04:08:47.582Z,42.97
2016-12-29T04:09:47.215Z,43.15
2016-12-29T04:10:47.244Z,43.15
2016-12-29T04:11:47.269Z,43.17
2016-12-29T04:12:47.698Z,43.24
2016-12-29T04:13:47.714Z,43.24
2016-12-29T04:14:47.743Z,43.24
2016-12-29T04:15:47.375Z,42.96
2016-12-29T04:16:47.800Z,42.67
2016-12-29T04:17:47.431Z,42.67
2016-12-29T04:18:47.462Z,42.76
2016-12-29T04:19:47.486Z,42.76
2016-12-29T04:20:47.911Z,42.69
2016-12-29T04:21:47.936Z,42.76
2016-12-29T04:22:47.565Z,42.76
2016-12-29T04:23:47.593Z,42.76
2016-12-29T04:24:48.014Z,43.05
2016-12-29T04:25:48.043Z,42.76
2016-12-29T04:26:48.072Z,42.59
2016-12-29T04:27:47.701Z,42.67
2016-12-29T04:28:47.717Z,42.57
2016-12-29T04:29:47.758Z,42.57
2016-12-29T04:30:47.779Z,42.67
2016-12-29T04:31:47.807Z,42.38
2016-12-29T04:32:47.828Z,42.38
2016-12-29T04:33:47.857Z,42.09
2016-12-29T04:34:48.286Z,42.3
2016-12-29T04:35:48.310Z,42.21
2016-12-29T04:36:47.944Z,42.47
2016-12-29T04:37:47.968Z,42.47
2016-12-29T04:38:48.388Z,42.09
2016-12-29T04:39:48.415Z,42.09
2016-12-29T04:40:48.447Z,42.09
2016-12-29T04:41:48.079Z,42.28
2016-12-29T04:42:48.495Z,41.89
2016-12-29T04:43:48.529Z,42.19
2016-12-29T04:44:48.549Z,42.28
2016-12-29T04:45:48.178Z,42.28
2016-12-29T04:46:48.610Z,42.49
2016-12-29T04:47:48.232Z,42.19
2016-12-29T04:48:48.265Z,42.28
2016-12-29T04:49:48.285Z,42.38
2016-12-29T04:50:48.714Z,42.67
2016-12-29T04:51:48.743Z,42.28
2016-12-29T04:52:48.372Z,42.28
2016-12-29T04:53:48.788Z,42.38
2016-12-29T04:54:48.821Z,42.49
2016-12-29T04:55:48.461Z,42.38
2016-12-29T04:56:48.879Z,42.19
2016-12-29T04:57:48.507Z,42.19
2016-12-29T04:58:48.920Z,42.09
2016-12-29T04:59:48.560Z,42.21
2016-12-29T05:00:48.578Z,42.21
2016-12-29T05:01:48.613Z,42.21
2016-12-29T05:02:48.639Z,42.19
2016-12-29T05:03:49.064Z,42.21
2016-12-29T05:04:49.084Z,42.3
2016-12-29T05:05:48.725Z,42.19
2016-12-29T05:06:49.146Z,42.19
2016-12-29T05:07:49.166Z,42.19
2016-12-29T05:08:48.799Z,42.19
2016-12-29T05:09:49.223Z,42.19
2016-12-29T05:10:48.856Z,42.3
2016-12-29T05:11:48.885Z,42.47
2016-12-29T05:12:48.910Z,42.49
2016-12-29T05:13:49.331Z,41.89
2016-12-29T05:14:48.956Z,42.28
2016-12-29T05:15:48.988Z,41.71
2016-12-29T05:16:49.018Z,41.72
2016-12-29T05:17:49.042Z,41.89
2016-12-29T05:18:49.467Z,41.99
2016-12-29T05:19:49.492Z,42.11
2016-12-29T05:20:49.520Z,41.99
2016-12-29T05:21:49.148Z,42.19
2016-12-29T05:22:49.174Z,42.19
2016-12-29T05:23:49.202Z,42.19
2016-12-29T05:24:49.231Z,42.09
2016-12-29T05:25:49.260Z,42.09
2016-12-29T05:26:49.280Z,41.89
2016-12-29T05:27:49.710Z,42.09
2016-12-29T05:28:49.338Z,42.09
2016-12-29T05:29:49.365Z,41.89
2016-12-29T05:30:49.787Z,42.09
2016-12-29T05:31:49.423Z,41.99
2016-12-29T05:32:49.845Z,41.89
2016-12-29T05:33:49.474Z,41.89
2016-12-29T05:34:49.495Z,41.71
2016-12-29T05:35:49.524Z,42.09
2016-12-29T05:36:49.552Z,42.09
2016-12-29T05:37:49.981Z,41.99
2016-12-29T05:38:49.610Z,42.09
2016-12-29T05:39:50.031Z,41.89
2016-12-29T05:40:49.659Z,41.89
2016-12-29T05:41:49.680Z,41.41
2016-12-29T05:42:50.108Z,41.44
2016-12-29T05:43:50.139Z,41.99
2016-12-29T05:44:49.771Z,41.41
2016-12-29T05:45:50.193Z,41.51
2016-12-29T05:46:50.220Z,41.8
2016-12-29T05:47:49.848Z,41.32
2016-12-29T05:48:50.273Z,41.61
2016-12-29T05:49:50.298Z,41.03
2016-12-29T05:50:50.331Z,41.61
2016-12-29T05:51:50.359Z,41.61
2016-12-29T05:52:49.980Z,41.51
2016-12-29T05:53:50.010Z,41.03
2016-12-29T05:54:50.434Z,41.51
2016-12-29T05:55:50.067Z,41.51
2016-12-29T05:56:50.483Z,41.03
2016-12-29T05:57:50.120Z,41.51
2016-12-29T05:58:50.541Z,41.63
2016-12-29T05:59:50.569Z,41.8
2016-12-29T06:00:50.590Z,41.8
2016-12-29T06:01:50.227Z,41.61
2016-12-29T06:02:50.251Z,41.32
2016-12-29T06:03:50.677Z,41.61
2016-12-29T06:04:50.305Z,41.53
2016-12-29T06:05:50.334Z,41.03
2016-12-29T06:06:50.358Z,41.13
2016-12-29T06:07:50.388Z,41.41
2016-12-29T06:08:50.412Z,41.34
2016-12-29T06:09:50.865Z,41.44
2016-12-29T06:10:50.465Z,41.22
2016-12-29T06:11:50.888Z,41.22
2016-12-29T06:12:50.918Z,41.22
2016-12-29T06:13:50.548Z,40.95
2016-12-29T06:14:50.573Z,41.13
2016-12-29T06:15:50.997Z,41.13
2016-12-29T06:16:50.630Z,41.24
2016-12-29T06:17:50.655Z,41.05
2016-12-29T06:18:50.684Z,41.14
2016-12-29T06:19:51.098Z,41.24
2016-12-29T06:20:51.133Z,41.34
2016-12-29T06:21:50.761Z,41.34
2016-12-29T06:22:51.182Z,41.32
2016-12-29T06:23:51.207Z,41.44
2016-12-29T06:24:50.844Z,41.44
2016-12-29T06:25:50.892Z,41.32
2016-12-29T06:26:50.895Z,41.41
2016-12-29T06:27:50.922Z,41.22
2016-12-29T06:28:50.955Z,41.13
2016-12-29T06:29:50.984Z,41.03
2016-12-29T06:30:51.400Z,41.13
2016-12-29T06:31:51.030Z,41.22
2016-12-29T06:32:51.454Z,41.13
2016-12-29T06:33:51.479Z,41.34
2016-12-29T06:34:51.508Z,41.22
2016-12-29T06:35:51.136Z,40.84
2016-12-29T06:36:51.558Z,41.41
2016-12-29T06:37:51.582Z,41.41
2016-12-29T06:38:51.615Z,41.51
2016-12-29T06:39:51.239Z,41.51
2016-12-29T06:40:51.272Z,41.32
2016-12-29T06:41:51.697Z,41.32
2016-12-29T06:42:51.326Z,41.22
2016-12-29T06:43:51.757Z,41.13
2016-12-29T06:44:51.779Z,41.03
2016-12-29T06:45:51.433Z,41.22
2016-12-29T06:46:51.437Z,41.22
2016-12-29T06:47:51.462Z,41.34
2016-12-29T06:48:51.482Z,41.32
2016-12-29T06:49:51.907Z,41.51
2016-12-29T06:50:51.540Z,40.94
2016-12-29T06:51:51.965Z,41.05
2016-12-29T06:52:51.989Z,40.94
2016-12-29T06:53:52.018Z,40.84
2016-12-29T06:54:51.646Z,41.03
2016-12-29T06:55:51.675Z,40.64
2016-12-29T06:56:51.700Z,40.94
2016-12-29T06:57:52.129Z,40.94
2016-12-29T06:58:51.754Z,41.03
2016-12-29T06:59:52.178Z,40.84
2016-12-29T07:00:52.209Z,40.74
2016-12-29T07:01:51.836Z,40.94
2016-12-29T07:02:52.257Z,40.84
2016-12-29T07:03:51.890Z,41.05
2016-12-29T07:04:51.918Z,41.03
2016-12-29T07:05:52.338Z,40.94
2016-12-29T07:06:52.420Z,40.94
2016-12-29T07:07:52.392Z,41.51
2016-12-29T07:08:52.421Z,40.74
2016-12-29T07:09:52.050Z,41.61
2016-12-29T07:10:52.475Z,41.13
2016-12-29T07:11:52.503Z,41.71
2016-12-29T07:12:52.132Z,41.51
2016-12-29T07:13:52.549Z,41.51
2016-12-29T07:14:52.187Z,41.14
2016-12-29T07:15:52.598Z,40.95
2016-12-29T07:16:52.639Z,41.05
2016-12-29T07:17:52.268Z,40.66
2016-12-29T07:18:52.685Z,40.66
2016-12-29T07:19:52.710Z,40.66
2016-12-29T07:20:52.346Z,40.57
2016-12-29T07:21:52.775Z,40.86
2016-12-29T07:22:52.798Z,41.05
2016-12-29T07:23:52.832Z,41.05
2016-12-29T07:24:52.853Z,41.05
2016-12-29T07:25:52.482Z,40.47
2016-12-29T07:26:52.511Z,40.95
2016-12-29T07:27:52.536Z,40.86
2016-12-29T07:28:52.960Z,40.86
2016-12-29T07:29:52.985Z,41.05
2016-12-29T07:30:53.014Z,40.86
2016-12-29T07:31:53.039Z,40.86
2016-12-29T07:32:53.079Z,41.05
2016-12-29T07:33:52.696Z,41.05
2016-12-29T07:34:53.116Z,40.66
2016-12-29T07:35:52.749Z,40.95
2016-12-29T07:36:53.174Z,41.05
2016-12-29T07:37:52.807Z,40.57
2016-12-29T07:38:53.225Z,40.57
2016-12-29T07:39:53.253Z,40.76
2016-12-29T07:40:53.281Z,40.95
2016-12-29T07:41:53.298Z,40.94
2016-12-29T07:42:52.939Z,40.47
2016-12-29T07:43:52.964Z,40.47
2016-12-29T07:44:53.388Z,40.66
2016-12-29T07:45:53.409Z,41.05
2016-12-29T07:46:53.441Z,40.66
2016-12-29T07:47:53.066Z,40.47
2016-12-29T07:48:53.495Z,40.64
2016-12-29T07:49:53.520Z,40.86
2016-12-29T07:50:53.149Z,40.76
2016-12-29T07:51:53.177Z,40.86
2016-12-29T07:52:53.206Z,40.86
2016-12-29T07:53:53.627Z,40.84
2016-12-29T07:54:53.259Z,41.05
2016-12-29T07:55:53.684Z,40.86
2016-12-29T07:56:53.709Z,40.86
2016-12-29T07:57:53.738Z,41.05
2016-12-29T07:58:53.363Z,40.86
2016-12-29T07:59:53.387Z,40.95
2016-12-29T08:00:53.819Z,40.47
2016-12-29T08:01:53.445Z,40.57
2016-12-29T08:02:53.474Z,41.05
2016-12-29T08:03:53.898Z,40.76
2016-12-29T08:04:53.924Z,40.95
2016-12-29T08:05:53.556Z,40.86
2016-12-29T08:06:53.587Z,40.57
2016-12-29T08:07:54.001Z,40.47
2016-12-29T08:08:54.030Z,40.37
2016-12-29T08:09:53.663Z,40.47
2016-12-29T08:10:54.087Z,40.66
2016-12-29T08:11:54.107Z,40.28
2016-12-29T08:12:54.137Z,40.57
2016-12-29T08:13:53.770Z,40.57
2016-12-29T08:14:54.191Z,40.57
2016-12-29T08:15:53.824Z,40.37
2016-12-29T08:16:54.248Z,40.66
2016-12-29T08:17:53.877Z,40.66
2016-12-29T08:18:53.906Z,40.37
2016-12-29T08:19:53.927Z,40.76
2016-12-29T08:20:54.351Z,40.37
2016-12-29T08:21:54.379Z,41.14
2016-12-29T08:22:54.408Z,41.24
2016-12-29T08:23:54.437Z,40.66
2016-12-29T08:24:54.070Z,40.66
2016-12-29T08:25:54.486Z,40.47
2016-12-29T08:26:54.119Z,40.57
2016-12-29T08:27:54.544Z,40.37
2016-12-29T08:28:54.569Z,40.66
2016-12-29T08:29:54.201Z,40.66
2016-12-29T08:30:54.226Z,40.76
2016-12-29T08:31:54.654Z,40.28
2016-12-29T08:32:54.276Z,40.47
2016-12-29T08:33:54.309Z,40.28
2016-12-29T08:34:54.732Z,40.66
2016-12-29T08:35:54.362Z,40.95
2016-12-29T08:36:54.787Z,40.47
2016-12-29T08:37:54.812Z,40.66
2016-12-29T08:38:54.836Z,40.57
2016-12-29T08:39:54.473Z,40.86
2016-12-29T08:40:54.538Z,40.86
2016-12-29T08:41:54.527Z,40.86
2016-12-29T08:42:54.552Z,40.57
2016-12-29T08:43:54.581Z,41.14
2016-12-29T08:44:55.005Z,40.57
2016-12-29T08:45:54.634Z,40.57
2016-12-29T08:46:55.063Z,40.66
2016-12-29T08:47:55.079Z,40.09
2016-12-29T08:48:54.716Z,40.2
2016-12-29T08:49:54.738Z,40.2
2016-12-29T08:50:54.770Z,40.01
2016-12-29T08:51:54.794Z,40.01
2016-12-29T08:52:54.823Z,40.2
2016-12-29T08:53:54.852Z,39.62
2016-12-29T08:54:55.276Z,39.82
2016-12-29T08:55:54.909Z,39.72
2016-12-29T08:56:55.350Z,39.91
2016-12-29T08:57:55.355Z,40.01
2016-12-29T08:58:55.384Z,39.91
2016-12-29T08:59:55.017Z,40.01
2016-12-29T09:00:55.041Z,39.82
2016-12-29T09:01:55.462Z,40.11
2016-12-29T09:02:55.491Z,39.72
2016-12-29T09:03:55.123Z,40.2
2016-12-29T09:04:55.152Z,40.01
2016-12-29T09:05:55.573Z,40.11
2016-12-29T09:06:55.205Z,40.11
2016-12-29T09:07:55.226Z,40.2
2016-12-29T09:08:55.263Z,40.01
2016-12-29T09:09:55.288Z,40.11
2016-12-29T09:10:55.710Z,40.01
2016-12-29T09:11:55.734Z,40.11
2016-12-29T09:12:55.371Z,40.01
2016-12-29T09:13:55.795Z,40.01
2016-12-29T09:14:55.812Z,40.2
2016-12-29T09:15:55.449Z,40.01
2016-12-29T09:16:55.874Z,39.91
2016-12-29T09:17:55.902Z,39.82
2016-12-29T09:18:55.527Z,39.91
2016-12-29T09:19:55.956Z,40.11
2016-12-29T09:20:55.584Z,40.01
2016-12-29T09:21:55.613Z,39.91
2016-12-29T09:22:55.661Z,39.91
2016-12-29T09:23:55.667Z,39.91
2016-12-29T09:24:55.699Z,40.01
2016-12-29T09:25:55.720Z,40.01
2016-12-29T09:26:56.145Z,39.91
2016-12-29T09:27:56.174Z,39.91
2016-12-29T09:28:56.195Z,39.91
2016-12-29T09:29:56.227Z,40.01
2016-12-29T09:30:56.256Z,39.82
2016-12-29T09:31:56.276Z,39.72
2016-12-29T09:32:56.309Z,39.82
2016-12-29T09:33:55.942Z,40.11
2016-12-29T09:34:55.971Z,40.2
2016-12-29T09:35:55.997Z,40.11
2016-12-29T09:36:56.020Z,40.01
2016-12-29T09:37:56.045Z,40.69
2016-12-29T09:38:56.074Z,40.3
2016-12-29T09:39:56.107Z,40.69
2016-12-29T09:40:56.527Z,40.69
2016-12-29T09:41:56.160Z,41.46
2016-12-29T09:42:56.579Z,41.36
2016-12-29T09:43:56.206Z,41.55
2016-12-29T09:44:56.242Z,41.65
2016-12-29T09:45:56.267Z,41.65
2016-12-29T09:46:56.691Z,42.13
2016-12-29T09:47:56.320Z,42.13
2016-12-29T09:48:56.353Z,42.11
2016-12-29T09:49:56.769Z,42.13
2016-12-29T09:50:56.807Z,42.21
2016-12-29T09:51:56.431Z,42.02
2016-12-29T09:52:56.461Z,42.02
2016-12-29T09:53:56.486Z,41.94
2016-12-29T09:54:56.910Z,42.49
2016-12-29T09:55:56.939Z,42.11
2016-12-29T09:56:56.964Z,42.11
2016-12-29T09:57:56.996Z,42.13
2016-12-29T09:58:56.625Z,42.02
2016-12-29T09:59:57.057Z,42.02
2016-12-29T10:00:57.070Z,41.63
2016-12-29T10:01:56.706Z,41.53
2016-12-29T10:02:57.128Z,41.46
2016-12-29T10:03:57.155Z,41.46
2016-12-29T10:04:56.785Z,41.55
2016-12-29T10:05:57.206Z,41.07
2016-12-29T10:06:57.247Z,41.17
2016-12-29T10:07:56.868Z,41.36
2016-12-29T10:08:56.896Z,41.27
2016-12-29T10:09:57.330Z,41.55
2016-12-29T10:10:57.350Z,41.55
2016-12-29T10:11:56.978Z,41.36
2016-12-29T10:12:57.003Z,41.36
2016-12-29T10:13:57.036Z,41.46
2016-12-29T10:14:57.456Z,41.55
2016-12-29T10:15:57.486Z,41.55
2016-12-29T10:16:57.115Z,41.46
2016-12-29T10:17:57.144Z,41.46
2016-12-29T10:18:57.173Z,41.46
2016-12-29T10:19:57.589Z,41.55
2016-12-29T10:20:57.626Z,41.65
2016-12-29T10:21:57.652Z,41.84
2016-12-29T10:22:57.674Z,41.27
2016-12-29T10:23:57.699Z,41.84
2016-12-29T10:24:57.728Z,41.94
2016-12-29T10:25:57.753Z,41.84
2016-12-29T10:26:57.785Z,41.94
2016-12-29T10:27:57.414Z,42.23
2016-12-29T10:28:57.443Z,41.46
2016-12-29T10:29:57.468Z,41.46
2016-12-29T10:30:57.483Z,41.65
2016-12-29T10:31:57.512Z,41.46
2016-12-29T10:32:57.535Z,41.46
2016-12-29T10:33:57.576Z,41.84
2016-12-29T10:34:57.598Z,41.27
2016-12-29T10:35:58.012Z,41.84
2016-12-29T10:36:57.644Z,41.46
2016-12-29T10:37:58.066Z,41.65
2016-12-29T10:38:58.094Z,42.23
2016-12-29T10:39:57.730Z,42.23
2016-12-29T10:40:58.150Z,42.03
2016-12-29T10:41:58.179Z,42.13
2016-12-29T10:42:57.810Z,41.94
2016-12-29T10:43:58.231Z,42.23
2016-12-29T10:44:58.258Z,42.03
2016-12-29T10:45:58.284Z,41.84
2016-12-29T10:46:57.918Z,42.25
2016-12-29T10:47:57.951Z,42.32
2016-12-29T10:48:58.370Z,42.23
2016-12-29T10:49:58.398Z,42.13
2016-12-29T10:50:58.428Z,42.23
2016-12-29T10:51:58.455Z,42.23
2016-12-29T10:52:58.488Z,42.23
2016-12-29T10:53:58.511Z,42.23
2016-12-29T10:54:58.555Z,42.23
2016-12-29T10:55:58.561Z,42.23
2016-12-29T10:56:58.590Z,42.23
2016-12-29T10:57:58.226Z,42.32
2016-12-29T10:58:58.292Z,42.42
2016-12-29T10:59:58.674Z,42.52
2016-12-29T11:00:58.308Z,42.42
2016-12-29T11:01:58.728Z,42.52
2016-12-29T11:02:58.759Z,42.13
2016-12-29T11:03:58.391Z,42.32
2016-12-29T11:04:58.809Z,42.32
2016-12-29T11:05:58.452Z,42.52
2016-12-29T11:06:58.472Z,42.32
2016-12-29T11:07:58.509Z,42.52
2016-12-29T11:08:58.922Z,42.42
2016-12-29T11:09:58.955Z,42.03
2016-12-29T11:10:58.583Z,42.03
2016-12-29T11:11:59.005Z,42.13
2016-12-29T11:12:58.640Z,42.23
2016-12-29T11:13:59.060Z,42.23
2016-12-29T11:14:58.697Z,42.42
2016-12-29T11:15:59.116Z,42.61
2016-12-29T11:16:58.751Z,42.61
2016-12-29T11:17:58.775Z,42.61
2016-12-29T11:18:58.821Z,42.8
2016-12-29T11:19:59.246Z,42.9
2016-12-29T11:20:59.267Z,42.52
2016-12-29T11:21:59.295Z,43.19
2016-12-29T11:22:58.928Z,43.29
2016-12-29T11:23:58.961Z,43.19
2016-12-29T11:24:58.987Z,43.29
2016-12-29T11:25:59.410Z,43.29
2016-12-29T11:26:59.044Z,43.38
2016-12-29T11:27:59.472Z,42.9
2016-12-29T11:28:59.094Z,43.1
2016-12-29T11:29:59.149Z,43
2016-12-29T11:30:59.154Z,42.8
2016-12-29T11:31:59.579Z,42.9
2016-12-29T11:32:59.604Z,42.71
2016-12-29T11:33:59.237Z,43.38
2016-12-29T11:34:59.265Z,42.9
2016-12-29T11:35:59.290Z,42.9
2016-12-29T11:36:59.714Z,42.8
2016-12-29T11:37:59.347Z,43.1
2016-12-29T11:38:59.401Z,43.1
2016-12-29T11:39:59.397Z,43.19
2016-12-29T11:40:59.432Z,42.52
2016-12-29T11:41:59.850Z,42.61
2016-12-29T11:42:59.483Z,42.8
2016-12-29T11:43:59.511Z,42.8
2016-12-29T11:44:59.532Z,42.32
2016-12-29T11:45:59.965Z,42.8
2016-12-29T11:46:59.985Z,42.42
2016-12-29T11:48:00.014Z,42.42
2016-12-29T11:49:00.039Z,42.42
2016-12-29T11:49:59.680Z,42.23
2016-12-29T11:50:59.705Z,42.71
2016-12-29T11:51:59.729Z,42.03
2016-12-29T11:53:00.154Z,42.63
2016-12-29T11:54:00.183Z,42.63
2016-12-29T11:55:00.211Z,42.42
2016-12-29T11:55:59.839Z,42.35
2016-12-29T11:56:59.865Z,42.42
2016-12-29T11:57:59.898Z,42.23
2016-12-29T11:58:59.926Z,42.23
2016-12-29T11:59:59.947Z,42.52
2016-12-29T12:00:59.983Z,41.75
2016-12-29T12:02:00.400Z,42.52
2016-12-29T12:03:00.029Z,42.42
2016-12-29T12:04:00.470Z,41.84
2016-12-29T12:05:00.091Z,41.96
2016-12-29T12:06:00.115Z,42.32
2016-12-29T12:07:00.144Z,41.84
2016-12-29T12:08:00.564Z,41.65
2016-12-29T12:09:00.205Z,41.84
2016-12-29T12:10:00.618Z,42.23
2016-12-29T12:11:00.259Z,41.65
2016-12-29T12:12:00.683Z,41.75
2016-12-29T12:13:00.308Z,41.65
2016-12-29T12:14:00.729Z,42.03
2016-12-29T12:15:00.762Z,41.75
2016-12-29T12:16:00.787Z,41.84
2016-12-29T12:17:00.415Z,42.03
2016-12-29T12:18:00.843Z,42.03
2016-12-29T12:19:00.873Z,41.65
2016-12-29T12:20:00.894Z,41.75
2016-12-29T12:21:00.921Z,41.75
2016-12-29T12:22:00.558Z,41.75
2016-12-29T12:23:00.579Z,41.75
2016-12-29T12:24:01.004Z,41.75
2016-12-29T12:25:01.030Z,41.84
2016-12-29T12:26:01.061Z,42.13
2016-12-29T12:27:00.689Z,42.42
2016-12-29T12:28:00.721Z,41.94
2016-12-29T12:29:01.143Z,42.52
2016-12-29T12:30:00.775Z,42.23
2016-12-29T12:31:01.197Z,42.32
2016-12-29T12:32:00.833Z,42.23
2016-12-29T12:33:00.858Z,42.13
2016-12-29T12:34:01.278Z,42.23
2016-12-29T12:35:01.315Z,42.42
2016-12-29T12:36:01.336Z,42.23
2016-12-29T12:37:01.370Z,42.13
2016-12-29T12:38:01.001Z,42.23
2016-12-29T12:39:01.026Z,42.13
2016-12-29T12:40:01.062Z,42.32
2016-12-29T12:41:01.491Z,42.32
2016-12-29T12:42:01.112Z,42.25
2016-12-29T12:43:01.140Z,42.42
2016-12-29T12:44:01.577Z,42.42
2016-12-29T12:45:01.190Z,42.32
2016-12-29T12:46:01.623Z,42.23
2016-12-29T12:47:01.639Z,42.23
2016-12-29T12:48:01.672Z,42.42
2016-12-29T12:49:01.300Z,42.13
2016-12-29T12:50:01.325Z,41.94
2016-12-29T12:51:01.358Z,41.86
2016-12-29T12:52:01.813Z,42.52
2016-12-29T12:53:01.415Z,42.03
2016-12-29T12:54:01.434Z,42.32
2016-12-29T12:55:01.460Z,41.84